Main page
METAR-TAF:

METAR-TAF

Airports :

Dresden Airport

Dresden, Germany

latitude: 51-08N, longitude: 013-45E, elevation: 230 m

Current weather observation

The report was made 36 minutes ago, at 21:20 UTC
Wind 2 kt from variable directions
Temperature 12°C
Humidity 58%
Pressure 1025 hPa
Visibility 10 km or more
no clouds below 1500 m and no cumulonimbus

METAR: EDDC 092120Z VRB02KT CAVOK 12/04 Q1025

Time: 23:56 (21:56 UTC)

Forecast

The report was made 4 hours and 56 minutes ago, at 17:00 UTC
Forecast valid from 09 at 18 UTC to 10 at 18 UTC
Wind 6 kt from the North
Visibility 10 km or more
no clouds below 1500 m and no cumulonimbus
Becoming
from 09 at 18 UTC to 09 at 20 UTC
Wind 3 kt from variable directions

TAF: EDDC 091700Z 0918/1018 35006KT CAVOK BECMG 0918/0920 VRB03KT

Weather observations and forecasts of more than 4000 airports (METAR and TAF reports).

The available stations are represented by yellow and red dots on the map.

Hover mouse over dot to see the name of the station.

Then click to see weather observations and forecasts.

To change the map : click on the green buttons with a black cross to zoom in, on the green button with a dash to zoom out, or on the green arrows for adjacent maps.


METAR-TAF: